createdAt,value
2022-11-19T00:00:20.000Z,8.03
2022-11-19T00:01:24.000Z,8.06
2022-11-19T00:02:20.000Z,8.07
2022-11-19T00:03:20.000Z,8.09
2022-11-19T00:04:20.000Z,8.04
2022-11-19T00:05:20.000Z,8.04
2022-11-19T00:06:22.000Z,8.03
2022-11-19T00:07:20.000Z,8.03
2022-11-19T00:08:20.000Z,8.05
2022-11-19T00:09:20.000Z,8.06
2022-11-19T00:10:20.000Z,8.04
2022-11-19T00:11:35.000Z,8.04
2022-11-19T00:12:25.000Z,8.05
2022-11-19T00:13:20.000Z,8.07
2022-11-19T00:14:21.000Z,8.06
2022-11-19T00:15:21.000Z,8.04
2022-11-19T00:16:20.000Z,8.03
2022-11-19T00:17:20.000Z,8.05
2022-11-19T00:18:20.000Z,8.04
2022-11-19T00:19:20.000Z,8.05
2022-11-19T00:20:20.000Z,8.04
2022-11-19T00:21:20.000Z,8.04
2022-11-19T00:22:20.000Z,8.02
2022-11-19T00:23:21.000Z,8.07
2022-11-19T00:24:21.000Z,8.06
2022-11-19T00:25:22.000Z,8.05
2022-11-19T00:26:21.000Z,8.06
2022-11-19T00:27:20.000Z,8.06
2022-11-19T00:28:20.000Z,8.04
2022-11-19T00:29:20.000Z,8.05
2022-11-19T00:30:20.000Z,8.05
2022-11-19T00:31:21.000Z,8.04
2022-11-19T00:32:20.000Z,8.04
2022-11-19T00:33:20.000Z,8.03
2022-11-19T00:34:20.000Z,8.02
2022-11-19T00:35:20.000Z,8.06
2022-11-19T00:36:21.000Z,8.04
2022-11-19T00:37:20.000Z,8.04
2022-11-19T00:38:20.000Z,8.05
2022-11-19T00:39:20.000Z,8.05
2022-11-19T00:40:20.000Z,8.05
2022-11-19T00:41:21.000Z,8.10
2022-11-19T00:42:21.000Z,8.07
2022-11-19T00:43:25.000Z,8.06
2022-11-19T00:44:20.000Z,8.04
2022-11-19T00:45:20.000Z,8.04
2022-11-19T00:46:35.000Z,8.05
2022-11-19T00:47:21.000Z,8.06
2022-11-19T00:48:21.000Z,8.06
2022-11-19T00:49:21.000Z,8.04
2022-11-19T00:50:21.000Z,8.05
2022-11-19T00:51:26.000Z,8.04
2022-11-19T00:52:20.000Z,8.03
2022-11-19T00:53:21.000Z,8.03
2022-11-19T00:54:20.000Z,8.03
2022-11-19T00:55:21.000Z,8.03
2022-11-19T00:56:23.000Z,8.03
2022-11-19T00:57:20.000Z,8.03
2022-11-19T00:58:20.000Z,8.02
2022-11-19T00:59:21.000Z,8.01
2022-11-19T01:00:20.000Z,8.02
2022-11-19T01:01:23.000Z,8.01
2022-11-19T01:02:21.000Z,8.04
2022-11-19T01:03:21.000Z,8.01
2022-11-19T01:04:21.000Z,8.03
2022-11-19T01:05:21.000Z,8.05
2022-11-19T01:06:23.000Z,8.05
2022-11-19T01:07:20.000Z,8.08
2022-11-19T01:08:21.000Z,8.04
2022-11-19T01:09:21.000Z,8.02
2022-11-19T01:10:21.000Z,8.04
2022-11-19T01:11:24.000Z,8.02
2022-11-19T01:12:20.000Z,8.03
2022-11-19T01:13:26.000Z,8.03
2022-11-19T01:14:20.000Z,8.04
2022-11-19T01:15:21.000Z,8.05
2022-11-19T01:16:28.000Z,8.03
2022-11-19T01:17:20.000Z,8.02
2022-11-19T01:18:21.000Z,8.03
2022-11-19T01:19:21.000Z,8.06
2022-11-19T01:20:21.000Z,8.06
2022-11-19T01:21:24.000Z,8.04
2022-11-19T01:22:20.000Z,8.04
2022-11-19T01:23:20.000Z,8.03
2022-11-19T01:24:21.000Z,8.03
2022-11-19T01:25:21.000Z,8.02
2022-11-19T01:26:21.000Z,8.03
2022-11-19T01:27:21.000Z,8.02
2022-11-19T01:28:20.000Z,8.02
2022-11-19T01:29:21.000Z,8.03
2022-11-19T01:30:20.000Z,8.04
2022-11-19T01:31:24.000Z,8.05
2022-11-19T01:32:21.000Z,8.06
2022-11-19T01:33:21.000Z,8.03
2022-11-19T01:34:20.000Z,8.01
2022-11-19T01:35:21.000Z,8.02
2022-11-19T01:36:24.000Z,8.00
2022-11-19T01:37:21.000Z,8.00
2022-11-19T01:38:20.000Z,8.02
2022-11-19T01:39:20.000Z,8.02
2022-11-19T01:40:21.000Z,8.03
2022-11-19T01:41:24.000Z,8.05
2022-11-19T01:42:35.000Z,8.03
2022-11-19T01:43:31.000Z,8.03
2022-11-19T01:44:31.000Z,8.02
2022-11-19T01:45:31.000Z,8.00
2022-11-19T01:46:24.000Z,7.99
2022-11-19T01:47:20.000Z,7.98
2022-11-19T01:48:26.000Z,7.98
2022-11-19T01:49:21.000Z,8.00
2022-11-19T01:50:21.000Z,7.98
2022-11-19T01:51:31.000Z,7.97
2022-11-19T01:52:21.000Z,7.97
2022-11-19T01:53:24.000Z,7.97
2022-11-19T01:54:28.000Z,7.97
2022-11-19T01:55:21.000Z,7.95
2022-11-19T01:56:22.000Z,7.96
2022-11-19T01:57:21.000Z,7.96
2022-11-19T01:58:22.000Z,7.94
2022-11-19T01:59:22.000Z,7.95
2022-11-19T02:00:21.000Z,7.96
2022-11-19T02:01:21.000Z,7.95
2022-11-19T02:02:22.000Z,7.96
2022-11-19T02:03:21.000Z,7.96
2022-11-19T02:04:21.000Z,7.95
2022-11-19T02:05:21.000Z,7.96
2022-11-19T02:06:20.000Z,7.95
2022-11-19T02:07:25.000Z,7.93
2022-11-19T02:08:30.000Z,7.93
2022-11-19T02:09:21.000Z,7.93
2022-11-19T02:10:42.000Z,7.94
2022-11-19T02:11:30.000Z,7.97
2022-11-19T02:12:44.000Z,7.96
2022-11-19T02:13:50.000Z,7.97
2022-11-19T02:14:30.000Z,7.97
2022-11-19T02:15:29.000Z,7.98
2022-11-19T02:16:45.000Z,7.96
2022-11-19T02:17:36.000Z,7.92
2022-11-19T02:18:33.000Z,7.91
2022-11-19T02:19:30.000Z,7.91
2022-11-19T02:20:30.000Z,7.95
2022-11-19T02:21:40.000Z,7.90
2022-11-19T02:22:45.000Z,7.90
2022-11-19T02:23:30.000Z,7.92
2022-11-19T02:24:49.000Z,7.94
2022-11-19T02:25:41.000Z,7.93
2022-11-19T02:26:48.000Z,7.93
2022-11-19T02:27:30.000Z,7.93
2022-11-19T02:28:44.000Z,7.89
2022-11-19T02:29:43.000Z,7.89
2022-11-19T02:30:20.000Z,7.90
2022-11-19T02:31:39.000Z,7.89
2022-11-19T02:32:29.000Z,7.88
2022-11-19T02:33:32.000Z,7.90
2022-11-19T02:34:30.000Z,7.89
2022-11-19T02:35:37.000Z,7.89
2022-11-19T02:36:31.000Z,7.90
2022-11-19T02:37:31.000Z,7.93
2022-11-19T02:38:29.000Z,7.93
2022-11-19T02:39:32.000Z,7.94
2022-11-19T02:40:44.000Z,7.92
2022-11-19T02:41:37.000Z,7.93
2022-11-19T02:42:30.000Z,7.93
2022-11-19T02:43:32.000Z,7.93
2022-11-19T02:44:33.000Z,7.93
2022-11-19T02:45:27.000Z,7.91
2022-11-19T02:46:21.000Z,7.91
2022-11-19T02:47:28.000Z,7.90
2022-11-19T02:48:30.000Z,7.89
2022-11-19T02:49:24.000Z,7.91
2022-11-19T02:50:38.000Z,7.90
2022-11-19T02:51:21.000Z,7.90
2022-11-19T02:52:20.000Z,7.95
2022-11-19T02:53:21.000Z,7.94
2022-11-19T02:54:20.000Z,7.90
2022-11-19T02:55:21.000Z,7.90
2022-11-19T02:56:41.000Z,7.94
2022-11-19T02:57:20.000Z,7.90
2022-11-19T02:58:27.000Z,7.89
2022-11-19T02:59:37.000Z,7.89
2022-11-19T03:00:27.000Z,7.90
2022-11-19T03:01:28.000Z,7.87
2022-11-19T03:02:34.000Z,7.90
2022-11-19T03:03:26.000Z,7.89
2022-11-19T03:04:27.000Z,7.92
2022-11-19T03:05:26.000Z,7.92
2022-11-19T03:06:25.000Z,7.91
2022-11-19T03:07:21.000Z,7.94
2022-11-19T03:08:20.000Z,7.96
2022-11-19T03:09:21.000Z,7.94
2022-11-19T03:10:26.000Z,7.93
2022-11-19T03:11:31.000Z,7.94
2022-11-19T03:12:34.000Z,7.95
2022-11-19T03:13:48.000Z,7.96
2022-11-19T03:14:38.000Z,7.95
2022-11-19T03:15:36.000Z,7.94
2022-11-19T03:16:33.000Z,7.94
2022-11-19T03:17:39.000Z,7.96
2022-11-19T03:18:29.000Z,7.98
2022-11-19T03:19:34.000Z,7.98
2022-11-19T03:20:30.000Z,7.98
2022-11-19T03:21:29.000Z,7.98
2022-11-19T03:22:25.000Z,7.99
2022-11-19T03:23:25.000Z,8.00
2022-11-19T03:24:26.000Z,8.01
2022-11-19T03:25:28.000Z,8.00
2022-11-19T03:26:27.000Z,7.98
2022-11-19T03:27:25.000Z,7.98
2022-11-19T03:28:26.000Z,8.00
2022-11-19T03:29:22.000Z,7.99
2022-11-19T03:30:20.000Z,8.01
2022-11-19T03:31:24.000Z,8.03
2022-11-19T03:32:35.000Z,8.03
2022-11-19T03:33:26.000Z,8.03
2022-11-19T03:34:25.000Z,8.02
2022-11-19T03:35:27.000Z,8.02
2022-11-19T03:36:26.000Z,8.01
2022-11-19T03:37:22.000Z,8.01
2022-11-19T03:38:29.000Z,8.00
2022-11-19T03:39:20.000Z,8.01
2022-11-19T03:40:22.000Z,8.00
2022-11-19T03:41:22.000Z,7.99
2022-11-19T03:42:22.000Z,8.00
2022-11-19T03:43:24.000Z,7.99
2022-11-19T03:44:37.000Z,7.99
2022-11-19T03:45:27.000Z,7.98
2022-11-19T03:46:22.000Z,8.00
2022-11-19T03:47:31.000Z,7.99
2022-11-19T03:48:22.000Z,8.00
2022-11-19T03:49:25.000Z,7.99
2022-11-19T03:50:31.000Z,8.01
2022-11-19T03:51:30.000Z,8.00
2022-11-19T03:52:20.000Z,8.00
2022-11-19T03:53:20.000Z,8.01
2022-11-19T03:54:20.000Z,8.04
2022-11-19T03:55:37.000Z,8.02
2022-11-19T03:56:23.000Z,8.02
2022-11-19T03:57:22.000Z,8.01
2022-11-19T03:58:23.000Z,8.04
2022-11-19T03:59:21.000Z,8.04
2022-11-19T04:00:20.000Z,8.02
2022-11-19T04:01:20.000Z,8.02
2022-11-19T04:02:20.000Z,8.03
2022-11-19T04:03:20.000Z,8.01
2022-11-19T04:04:25.000Z,8.02
2022-11-19T04:05:20.000Z,8.00
2022-11-19T04:06:20.000Z,7.99
2022-11-19T04:07:23.000Z,8.00
2022-11-19T04:08:20.000Z,8.01
2022-11-19T04:09:20.000Z,8.00
2022-11-19T04:10:20.000Z,8.02
2022-11-19T04:11:20.000Z,8.03
2022-11-19T04:12:22.000Z,8.02
2022-11-19T04:13:20.000Z,8.03
2022-11-19T04:14:20.000Z,8.03
2022-11-19T04:15:20.000Z,8.04
2022-11-19T04:16:20.000Z,8.03
2022-11-19T04:17:20.000Z,8.04
2022-11-19T04:18:20.000Z,8.04
2022-11-19T04:19:20.000Z,8.02
2022-11-19T04:20:20.000Z,8.04
2022-11-19T04:21:20.000Z,8.05
2022-11-19T04:22:20.000Z,8.02
2022-11-19T04:23:20.000Z,8.04
2022-11-19T04:24:20.000Z,8.03
2022-11-19T04:25:20.000Z,8.02
2022-11-19T04:26:20.000Z,8.01
2022-11-19T04:27:20.000Z,8.02
2022-11-19T04:28:20.000Z,8.03
2022-11-19T04:29:20.000Z,8.03
2022-11-19T04:30:20.000Z,8.05
2022-11-19T04:31:20.000Z,8.03
2022-11-19T04:32:20.000Z,8.03
2022-11-19T04:33:20.000Z,8.04
2022-11-19T04:34:20.000Z,8.05
2022-11-19T04:35:20.000Z,8.05
2022-11-19T04:36:20.000Z,8.05
2022-11-19T04:37:20.000Z,8.03
2022-11-19T04:38:20.000Z,8.04
2022-11-19T04:39:20.000Z,8.05
2022-11-19T04:40:20.000Z,8.05
2022-11-19T04:41:20.000Z,8.04
2022-11-19T04:42:20.000Z,8.05
2022-11-19T04:43:20.000Z,8.04
2022-11-19T04:44:20.000Z,8.04
2022-11-19T04:45:20.000Z,8.03
2022-11-19T04:46:20.000Z,8.04
2022-11-19T04:47:20.000Z,8.05
2022-11-19T04:48:20.000Z,8.06
2022-11-19T04:49:20.000Z,8.04
2022-11-19T04:50:20.000Z,8.06
2022-11-19T04:51:21.000Z,8.04
2022-11-19T04:52:20.000Z,8.04
2022-11-19T04:53:20.000Z,8.02
2022-11-19T04:54:20.000Z,8.03
2022-11-19T04:55:20.000Z,8.05
2022-11-19T04:56:20.000Z,8.04
2022-11-19T04:57:20.000Z,8.05
2022-11-19T04:58:20.000Z,8.05
2022-11-19T04:59:21.000Z,8.06
2022-11-19T05:00:20.000Z,8.06
2022-11-19T05:01:20.000Z,8.05
2022-11-19T05:02:20.000Z,8.05
2022-11-19T05:03:20.000Z,8.05
2022-11-19T05:04:20.000Z,8.06
2022-11-19T05:05:20.000Z,8.05
2022-11-19T05:06:20.000Z,8.05
2022-11-19T05:07:20.000Z,8.10
2022-11-19T05:08:21.000Z,8.07
2022-11-19T05:09:20.000Z,8.06
2022-11-19T05:10:20.000Z,8.11
2022-11-19T05:11:21.000Z,8.07
2022-11-19T05:12:20.000Z,8.06
2022-11-19T05:13:20.000Z,8.07
2022-11-19T05:14:20.000Z,8.10
2022-11-19T05:15:20.000Z,8.08
2022-11-19T05:16:20.000Z,8.08
2022-11-19T05:17:20.000Z,8.08
2022-11-19T05:18:20.000Z,8.08
2022-11-19T05:19:20.000Z,8.07
2022-11-19T05:20:20.000Z,8.10
2022-11-19T05:21:20.000Z,8.07
2022-11-19T05:22:20.000Z,8.07
2022-11-19T05:23:21.000Z,8.06
2022-11-19T05:24:20.000Z,8.09
2022-11-19T05:25:20.000Z,8.08
2022-11-19T05:26:20.000Z,8.06
2022-11-19T05:27:20.000Z,8.05
2022-11-19T05:28:20.000Z,8.05
2022-11-19T05:29:20.000Z,8.06
2022-11-19T05:30:21.000Z,8.07
2022-11-19T05:31:20.000Z,8.07
2022-11-19T05:32:20.000Z,8.08
2022-11-19T05:33:21.000Z,8.08
2022-11-19T05:34:20.000Z,8.05
2022-11-19T05:35:21.000Z,8.06
2022-11-19T05:36:20.000Z,8.05
2022-11-19T05:37:20.000Z,8.05
2022-11-19T05:38:20.000Z,8.05
2022-11-19T05:39:20.000Z,8.05
2022-11-19T05:40:21.000Z,8.05
2022-11-19T05:41:20.000Z,8.06
2022-11-19T05:42:21.000Z,8.05
2022-11-19T05:43:20.000Z,8.04
2022-11-19T05:44:20.000Z,8.04
2022-11-19T05:45:20.000Z,8.03
2022-11-19T05:46:21.000Z,8.04
2022-11-19T05:47:20.000Z,8.02
2022-11-19T05:48:20.000Z,8.03
2022-11-19T05:49:21.000Z,8.00
2022-11-19T05:50:20.000Z,8.00
2022-11-19T05:51:21.000Z,7.99
2022-11-19T05:52:20.000Z,7.99
2022-11-19T05:53:20.000Z,7.98
2022-11-19T05:54:20.000Z,7.98
2022-11-19T05:55:21.000Z,7.96
2022-11-19T05:56:20.000Z,7.96
2022-11-19T05:57:20.000Z,7.96
2022-11-19T05:58:21.000Z,7.96
2022-11-19T05:59:20.000Z,7.96
2022-11-19T06:00:21.000Z,7.98
2022-11-19T06:01:25.000Z,7.97
2022-11-19T06:02:20.000Z,7.97
2022-11-19T06:03:20.000Z,7.97
2022-11-19T06:04:20.000Z,7.98
2022-11-19T06:05:20.000Z,7.99
2022-11-19T06:06:21.000Z,7.98
2022-11-19T06:07:20.000Z,7.99
2022-11-19T06:08:20.000Z,7.96
2022-11-19T06:09:21.000Z,7.97
2022-11-19T06:10:20.000Z,7.98
2022-11-19T06:11:25.000Z,8.00
2022-11-19T06:12:21.000Z,7.99
2022-11-19T06:13:20.000Z,7.97
2022-11-19T06:14:25.000Z,7.96
2022-11-19T06:15:20.000Z,7.96
2022-11-19T06:16:20.000Z,7.99
2022-11-19T06:17:20.000Z,8.02
2022-11-19T06:18:20.000Z,7.99
2022-11-19T06:19:21.000Z,7.99
2022-11-19T06:20:21.000Z,7.99
2022-11-19T06:21:20.000Z,7.99
2022-11-19T06:22:20.000Z,8.00
2022-11-19T06:23:20.000Z,7.99
2022-11-19T06:24:20.000Z,7.99
2022-11-19T06:25:20.000Z,8.00
2022-11-19T06:26:25.000Z,8.00
2022-11-19T06:27:20.000Z,8.01
2022-11-19T06:28:20.000Z,8.00
2022-11-19T06:29:20.000Z,8.00
2022-11-19T06:30:20.000Z,8.01
2022-11-19T06:31:20.000Z,8.03
2022-11-19T06:32:20.000Z,8.02
2022-11-19T06:33:20.000Z,8.02
2022-11-19T06:34:20.000Z,8.01
2022-11-19T06:35:20.000Z,8.00
2022-11-19T06:36:20.000Z,8.01
2022-11-19T06:37:20.000Z,8.02
2022-11-19T06:38:20.000Z,8.02
2022-11-19T06:39:20.000Z,8.01
2022-11-19T06:40:20.000Z,8.02
2022-11-19T06:41:20.000Z,8.00
2022-11-19T06:42:25.000Z,7.97
2022-11-19T06:43:20.000Z,7.97
2022-11-19T06:44:20.000Z,7.97
2022-11-19T06:45:20.000Z,8.00
2022-11-19T06:46:20.000Z,7.99
2022-11-19T06:47:20.000Z,7.99
2022-11-19T06:48:20.000Z,7.99
2022-11-19T06:49:20.000Z,7.99
2022-11-19T06:50:20.000Z,8.01
2022-11-19T06:51:20.000Z,8.00
2022-11-19T06:52:20.000Z,7.98
2022-11-19T06:53:20.000Z,7.99
2022-11-19T06:54:19.000Z,7.99
2022-11-19T06:55:20.000Z,8.01
2022-11-19T06:56:19.000Z,8.00
2022-11-19T06:57:20.000Z,8.01
2022-11-19T06:58:19.000Z,8.00
2022-11-19T06:59:19.000Z,8.00
2022-11-19T07:00:20.000Z,8.00
2022-11-19T07:01:19.000Z,7.99
2022-11-19T07:02:19.000Z,8.02
2022-11-19T07:03:20.000Z,8.00
2022-11-19T07:04:20.000Z,8.03
2022-11-19T07:05:20.000Z,8.00
2022-11-19T07:06:20.000Z,8.01
2022-11-19T07:07:20.000Z,8.00
2022-11-19T07:08:19.000Z,8.00
2022-11-19T07:09:19.000Z,8.01
2022-11-19T07:10:20.000Z,8.00
2022-11-19T07:11:25.000Z,8.00
2022-11-19T07:12:19.000Z,8.01
2022-11-19T07:13:20.000Z,8.00
2022-11-19T07:14:19.000Z,8.00
2022-11-19T07:15:19.000Z,8.01
2022-11-19T07:16:20.000Z,7.98
2022-11-19T07:17:19.000Z,7.98
2022-11-19T07:18:19.000Z,8.00
2022-11-19T07:19:19.000Z,8.01
2022-11-19T07:20:19.000Z,8.01
2022-11-19T07:21:20.000Z,8.02
2022-11-19T07:22:20.000Z,8.03
2022-11-19T07:23:19.000Z,8.03
2022-11-19T07:24:20.000Z,8.02
2022-11-19T07:25:20.000Z,8.06
2022-11-19T07:26:20.000Z,8.03
2022-11-19T07:27:20.000Z,8.01
2022-11-19T07:28:19.000Z,8.03
2022-11-19T07:29:20.000Z,8.03
2022-11-19T07:30:19.000Z,8.05
2022-11-19T07:31:20.000Z,8.04
2022-11-19T07:32:19.000Z,8.02
2022-11-19T07:33:20.000Z,8.04
2022-11-19T07:34:20.000Z,8.03
2022-11-19T07:35:19.000Z,8.04
2022-11-19T07:36:20.000Z,8.04
2022-11-19T07:37:20.000Z,8.04
2022-11-19T07:38:19.000Z,8.05
2022-11-19T07:39:20.000Z,8.05
2022-11-19T07:40:20.000Z,8.06
2022-11-19T07:41:25.000Z,8.05
2022-11-19T07:42:25.000Z,8.03
2022-11-19T07:43:20.000Z,8.04
2022-11-19T07:44:20.000Z,8.03
2022-11-19T07:45:20.000Z,8.04
2022-11-19T07:46:20.000Z,8.05
2022-11-19T07:47:20.000Z,8.05
2022-11-19T07:48:19.000Z,8.03
2022-11-19T07:49:20.000Z,8.05
2022-11-19T07:50:19.000Z,8.06
2022-11-19T07:51:21.000Z,8.05
2022-11-19T07:52:20.000Z,8.06
2022-11-19T07:53:20.000Z,8.03
2022-11-19T07:54:20.000Z,8.03
2022-11-19T07:55:20.000Z,8.02
2022-11-19T07:56:20.000Z,8.02
2022-11-19T07:57:20.000Z,8.02
2022-11-19T07:58:20.000Z,8.04
2022-11-19T07:59:20.000Z,8.05
2022-11-19T08:00:20.000Z,8.04
2022-11-19T08:01:22.000Z,8.06
2022-11-19T08:02:20.000Z,8.05
2022-11-19T08:03:20.000Z,8.03
2022-11-19T08:04:20.000Z,8.03
2022-11-19T08:05:20.000Z,8.03
2022-11-19T08:06:21.000Z,8.03
2022-11-19T08:07:20.000Z,8.02
2022-11-19T08:08:20.000Z,8.04
2022-11-19T08:09:20.000Z,8.04
2022-11-19T08:10:20.000Z,7.96
2022-11-19T08:11:20.000Z,7.93
2022-11-19T08:12:20.000Z,7.92
2022-11-19T08:13:20.000Z,7.88
2022-11-19T08:14:20.000Z,7.91
2022-11-19T08:15:20.000Z,7.79
2022-11-19T08:16:25.000Z,7.76
2022-11-19T08:17:25.000Z,7.73
2022-11-19T08:18:20.000Z,7.76
2022-11-19T08:19:20.000Z,7.77
2022-11-19T08:20:20.000Z,7.72
2022-11-19T08:21:20.000Z,7.74
2022-11-19T08:22:20.000Z,7.71
2022-11-19T08:23:21.000Z,7.73
2022-11-19T08:24:21.000Z,7.72
2022-11-19T08:25:21.000Z,7.64
2022-11-19T08:26:20.000Z,7.62
2022-11-19T08:27:20.000Z,7.63
2022-11-19T08:28:20.000Z,7.63
2022-11-19T08:29:22.000Z,7.62
2022-11-19T08:30:20.000Z,7.62
2022-11-19T08:31:20.000Z,7.60
2022-11-19T08:32:20.000Z,7.54
2022-11-19T08:33:20.000Z,7.51
2022-11-19T08:34:21.000Z,7.47
2022-11-19T08:35:21.000Z,7.48
2022-11-19T08:36:21.000Z,7.42
2022-11-19T08:37:20.000Z,7.46
2022-11-19T08:38:20.000Z,7.45
2022-11-19T08:39:20.000Z,7.44
2022-11-19T08:40:20.000Z,7.43
2022-11-19T08:41:25.000Z,7.41
2022-11-19T08:42:25.000Z,7.39
2022-11-19T08:43:20.000Z,7.35
2022-11-19T08:44:20.000Z,7.36
2022-11-19T08:45:21.000Z,7.30
2022-11-19T08:46:20.000Z,7.31
2022-11-19T08:47:20.000Z,7.33
2022-11-19T08:48:20.000Z,7.30
2022-11-19T08:49:20.000Z,7.28
2022-11-19T08:50:21.000Z,7.31
2022-11-19T08:51:20.000Z,7.29
2022-11-19T08:52:20.000Z,7.28
2022-11-19T08:53:20.000Z,7.23
2022-11-19T08:54:20.000Z,7.25
2022-11-19T08:55:19.000Z,7.24
2022-11-19T08:56:19.000Z,7.23
2022-11-19T08:57:19.000Z,7.24
2022-11-19T08:58:20.000Z,7.23
2022-11-19T08:59:19.000Z,7.24
2022-11-19T09:00:20.000Z,7.23
2022-11-19T09:01:20.000Z,7.22
2022-11-19T09:02:19.000Z,7.22
2022-11-19T09:03:20.000Z,7.22
2022-11-19T09:04:20.000Z,7.22
2022-11-19T09:05:19.000Z,7.21
2022-11-19T09:06:19.000Z,7.21
2022-11-19T09:07:19.000Z,7.17
2022-11-19T09:08:19.000Z,7.21
2022-11-19T09:09:19.000Z,7.18
2022-11-19T09:10:19.000Z,7.17
2022-11-19T09:11:20.000Z,7.18
2022-11-19T09:12:19.000Z,7.17
2022-11-19T09:13:20.000Z,7.14
2022-11-19T09:14:19.000Z,7.17
2022-11-19T09:15:19.000Z,7.20
2022-11-19T09:16:19.000Z,7.19
2022-11-19T09:17:19.000Z,7.18
2022-11-19T09:18:19.000Z,7.15
2022-11-19T09:19:19.000Z,7.14
2022-11-19T09:20:19.000Z,7.20
2022-11-19T09:21:19.000Z,7.18
2022-11-19T09:22:20.000Z,7.20
2022-11-19T09:23:21.000Z,7.21
2022-11-19T09:24:19.000Z,7.18
2022-11-19T09:25:19.000Z,7.15
2022-11-19T09:26:20.000Z,7.16
2022-11-19T09:27:19.000Z,7.17
2022-11-19T09:28:19.000Z,7.18
2022-11-19T09:29:20.000Z,7.16
2022-11-19T09:30:20.000Z,7.15
2022-11-19T09:31:20.000Z,7.12
2022-11-19T09:32:20.000Z,7.12
2022-11-19T09:33:20.000Z,7.15
2022-11-19T09:34:20.000Z,7.17
2022-11-19T09:35:19.000Z,7.19
2022-11-19T09:36:20.000Z,7.23
2022-11-19T09:37:20.000Z,7.19
2022-11-19T09:38:20.000Z,7.15
2022-11-19T09:39:20.000Z,7.16
2022-11-19T09:40:20.000Z,7.16
2022-11-19T09:41:30.000Z,7.18
2022-11-19T09:42:34.000Z,7.15
2022-11-19T09:43:34.000Z,7.12
2022-11-19T09:44:37.000Z,7.11
2022-11-19T09:45:30.000Z,7.07
2022-11-19T09:46:31.000Z,7.06
2022-11-19T09:47:33.000Z,7.06
2022-11-19T09:48:30.000Z,7.08
2022-11-19T09:49:29.000Z,7.10
2022-11-19T09:50:26.000Z,7.13
2022-11-19T09:51:25.000Z,7.12
2022-11-19T09:52:24.000Z,7.10
2022-11-19T09:53:21.000Z,7.10
2022-11-19T09:54:20.000Z,7.07
2022-11-19T09:55:29.000Z,7.08
2022-11-19T09:56:26.000Z,7.09
2022-11-19T09:57:29.000Z,7.10
2022-11-19T09:58:44.000Z,7.08
2022-11-19T09:59:30.000Z,7.07
2022-11-19T10:00:24.000Z,7.08
2022-11-19T10:01:20.000Z,7.08
2022-11-19T10:02:22.000Z,7.08
2022-11-19T10:03:23.000Z,7.05
2022-11-19T10:04:23.000Z,7.04
2022-11-19T10:05:35.000Z,7.03
2022-11-19T10:06:30.000Z,7.03
2022-11-19T10:07:38.000Z,7.03
2022-11-19T10:08:31.000Z,7.04
2022-11-19T10:09:43.000Z,7.01
2022-11-19T10:10:38.000Z,7.00
2022-11-19T10:11:43.000Z,7.00
2022-11-19T10:12:47.000Z,7.01
2022-11-19T10:13:37.000Z,7.00
2022-11-19T10:14:37.000Z,7.03
2022-11-19T10:15:30.000Z,6.97
2022-11-19T10:16:38.000Z,7.00
2022-11-19T10:17:30.000Z,7.07
2022-11-19T10:18:44.000Z,7.05
2022-11-19T10:19:30.000Z,7.07
2022-11-19T10:20:30.000Z,7.01
2022-11-19T10:21:45.000Z,7.06
2022-11-19T10:22:26.000Z,7.08
2022-11-19T10:23:30.000Z,7.17
2022-11-19T10:24:32.000Z,7.12
2022-11-19T10:25:22.000Z,7.10
2022-11-19T10:26:31.000Z,7.09
2022-11-19T10:27:30.000Z,7.12
2022-11-19T10:28:26.000Z,7.13
2022-11-19T10:29:23.000Z,7.21
2022-11-19T10:30:25.000Z,7.20
2022-11-19T10:31:42.000Z,7.22
2022-11-19T10:32:40.000Z,7.17
2022-11-19T10:33:31.000Z,7.22
2022-11-19T10:34:29.000Z,7.24
2022-11-19T10:35:26.000Z,7.24
2022-11-19T10:36:35.000Z,7.21
2022-11-19T10:37:22.000Z,7.16
2022-11-19T10:38:25.000Z,7.16
2022-11-19T10:39:31.000Z,7.16
2022-11-19T10:40:22.000Z,7.22
2022-11-19T10:41:30.000Z,7.15
2022-11-19T10:42:38.000Z,7.16
2022-11-19T10:43:40.000Z,7.08
2022-11-19T10:44:48.000Z,7.12
2022-11-19T10:45:25.000Z,7.18
2022-11-19T10:46:24.000Z,7.17
2022-11-19T10:47:27.000Z,7.18
2022-11-19T10:48:23.000Z,7.19
2022-11-19T10:49:20.000Z,7.19
2022-11-19T10:50:23.000Z,7.20
2022-11-19T10:51:37.000Z,7.20
2022-11-19T10:52:31.000Z,7.23
2022-11-19T10:53:27.000Z,7.27
2022-11-19T10:54:24.000Z,7.25
2022-11-19T10:55:40.000Z,7.25
2022-11-19T10:56:26.000Z,7.30
2022-11-19T10:57:21.000Z,7.32
2022-11-19T10:58:24.000Z,7.30
2022-11-19T10:59:25.000Z,7.30
2022-11-19T11:00:19.000Z,7.25
2022-11-19T11:01:36.000Z,7.22
2022-11-19T11:02:27.000Z,7.14
2022-11-19T11:03:25.000Z,7.12
2022-11-19T11:04:25.000Z,7.12
2022-11-19T11:05:19.000Z,7.10
2022-11-19T11:06:19.000Z,7.08
2022-11-19T11:07:20.000Z,7.06
2022-11-19T11:08:19.000Z,7.10
2022-11-19T11:09:28.000Z,7.06
2022-11-19T11:10:32.000Z,7.11
2022-11-19T11:11:29.000Z,7.08
2022-11-19T11:12:25.000Z,6.99
2022-11-19T11:13:37.000Z,6.90
2022-11-19T11:14:24.000Z,6.96
2022-11-19T11:15:23.000Z,6.92
2022-11-19T11:16:23.000Z,6.94
2022-11-19T11:17:23.000Z,6.94
2022-11-19T11:18:25.000Z,6.95
2022-11-19T11:19:19.000Z,6.87
2022-11-19T11:20:23.000Z,6.89
2022-11-19T11:21:29.000Z,6.85
2022-11-19T11:22:19.000Z,6.92
2022-11-19T11:23:23.000Z,6.82
2022-11-19T11:24:28.000Z,6.86
2022-11-19T11:25:25.000Z,6.88
2022-11-19T11:26:23.000Z,6.93
2022-11-19T11:27:27.000Z,6.89
2022-11-19T11:28:21.000Z,6.86
2022-11-19T11:29:23.000Z,6.88
2022-11-19T11:30:19.000Z,6.83
2022-11-19T11:31:31.000Z,6.77
2022-11-19T11:32:26.000Z,6.79
2022-11-19T11:33:38.000Z,6.80
2022-11-19T11:34:28.000Z,6.83
2022-11-19T11:35:28.000Z,6.80
2022-11-19T11:36:23.000Z,6.85
2022-11-19T11:37:20.000Z,6.82
2022-11-19T11:38:22.000Z,6.70
2022-11-19T11:39:29.000Z,6.73
2022-11-19T11:40:21.000Z,6.70
2022-11-19T11:41:29.000Z,6.70
2022-11-19T11:42:23.000Z,6.78
2022-11-19T11:43:19.000Z,6.71
2022-11-19T11:44:25.000Z,6.77
2022-11-19T11:45:29.000Z,6.70
2022-11-19T11:46:19.000Z,6.78
2022-11-19T11:47:29.000Z,6.72
2022-11-19T11:48:20.000Z,6.72
2022-11-19T11:49:29.000Z,6.74
2022-11-19T11:50:23.000Z,6.80
2022-11-19T11:51:31.000Z,6.75
2022-11-19T11:52:31.000Z,6.83
2022-11-19T11:53:28.000Z,6.81
2022-11-19T11:54:20.000Z,6.83
2022-11-19T11:55:37.000Z,6.77
2022-11-19T11:56:19.000Z,6.82
2022-11-19T11:57:26.000Z,6.83
2022-11-19T11:58:26.000Z,6.83
2022-11-19T11:59:29.000Z,6.87
2022-11-19T12:00:43.000Z,6.91
2022-11-19T12:01:20.000Z,6.94
2022-11-19T12:02:32.000Z,6.91
2022-11-19T12:03:21.000Z,6.93
2022-11-19T12:04:20.000Z,6.95
2022-11-19T12:05:20.000Z,6.96
2022-11-19T12:06:30.000Z,6.85
2022-11-19T12:07:30.000Z,6.91
2022-11-19T12:08:41.000Z,6.91
2022-11-19T12:09:33.000Z,6.95
2022-11-19T12:10:34.000Z,6.96
2022-11-19T12:11:30.000Z,7.02
2022-11-19T12:12:38.000Z,6.96
2022-11-19T12:13:37.000Z,6.93
2022-11-19T12:14:43.000Z,6.95
2022-11-19T12:15:31.000Z,6.90
2022-11-19T12:16:30.000Z,6.98
2022-11-19T12:17:34.000Z,6.80
2022-11-19T12:18:31.000Z,6.77
2022-11-19T12:19:31.000Z,6.84
2022-11-19T12:20:36.000Z,6.79
2022-11-19T12:21:39.000Z,6.74
2022-11-19T12:22:43.000Z,6.79
2022-11-19T12:23:43.000Z,6.78
2022-11-19T12:24:30.000Z,6.82
2022-11-19T12:25:50.000Z,6.81
2022-11-19T12:26:43.000Z,6.78
2022-11-19T12:27:43.000Z,6.79
2022-11-19T12:28:33.000Z,6.79
2022-11-19T12:29:40.000Z,6.78
2022-11-19T12:30:30.000Z,6.80
2022-11-19T12:31:40.000Z,6.76
2022-11-19T12:32:39.000Z,6.82
2022-11-19T12:33:45.000Z,6.88
2022-11-19T12:34:43.000Z,6.86
2022-11-19T12:35:35.000Z,6.85
2022-11-19T12:36:40.000Z,6.88
2022-11-19T12:37:50.000Z,6.87
2022-11-19T12:38:30.000Z,6.91
2022-11-19T12:39:30.000Z,6.82
2022-11-19T12:40:43.000Z,6.72
2022-11-19T12:41:30.000Z,6.80
2022-11-19T12:42:40.000Z,6.86
2022-11-19T12:43:30.000Z,6.89
2022-11-19T12:44:38.000Z,6.85
2022-11-19T12:45:30.000Z,6.85
2022-11-19T12:46:43.000Z,6.87
2022-11-19T12:47:30.000Z,6.90
2022-11-19T12:48:43.000Z,6.92
2022-11-19T12:49:33.000Z,6.96
2022-11-19T12:50:38.000Z,6.99
2022-11-19T12:51:36.000Z,6.96
2022-11-19T12:52:30.000Z,6.91
2022-11-19T12:53:32.000Z,6.92
2022-11-19T12:54:40.000Z,6.90
2022-11-19T12:55:30.000Z,6.90
2022-11-19T12:56:34.000Z,6.89
2022-11-19T12:57:41.000Z,6.93
2022-11-19T12:58:45.000Z,6.86
2022-11-19T12:59:33.000Z,6.79
2022-11-19T13:00:22.000Z,6.81
2022-11-19T13:01:25.000Z,6.88
2022-11-19T13:02:28.000Z,6.76
2022-11-19T13:03:38.000Z,6.72
2022-11-19T13:04:30.000Z,6.74
2022-11-19T13:05:30.000Z,6.78
2022-11-19T13:06:34.000Z,6.76
2022-11-19T13:07:29.000Z,6.75
2022-11-19T13:08:31.000Z,6.78
2022-11-19T13:09:33.000Z,6.79
2022-11-19T13:10:24.000Z,6.87
2022-11-19T13:11:29.000Z,6.86
2022-11-19T13:12:26.000Z,6.91
2022-11-19T13:13:25.000Z,6.90
2022-11-19T13:14:32.000Z,6.90
2022-11-19T13:15:30.000Z,6.84
2022-11-19T13:16:23.000Z,6.82
2022-11-19T13:17:29.000Z,6.79
2022-11-19T13:18:21.000Z,6.83